Time;durP1;ratioP1;P1;durP2;ratioP2;P2;SDS_P1;SDS_P2;PMS_P1;PMS_P2;Temp;Humidity;BMP_temperature;BMP_pressure;BME280_temperature;BME280_humidity;BME280_pressure;Samples;Min_cycle;Max_cycle;Signal;HPM_P1;HPM_P2
2023/06/29 00:01:21;;;;;;;2.12;0.80;;;22.30;41.70;;;;;;2305257;55;20947;-69
2023/06/29 00:03:47;;;;;;;2.33;1.00;;;22.30;41.80;;;;;;2303793;55;21602;-70
2023/06/29 00:06:14;;;;;;;1.50;0.75;;;22.30;41.80;;;;;;2528953;54;20911;-68
2023/06/29 00:08:40;;;;;;;2.17;0.90;;;22.20;41.90;;;;;;2282577;56;21807;-70
2023/06/29 00:11:10;;;;;;;1.75;0.90;;;22.20;42.00;;;;;;2281907;56;21042;-68
2023/06/29 00:13:49;;;;;;;2.00;0.80;;;22.20;42.20;;;;;;2491135;54;21853;-68
2023/06/29 00:16:19;;;;;;;2.08;0.90;;;22.20;42.70;;;;;;2521836;54;20927;-69
2023/06/29 00:18:45;;;;;;;2.05;0.70;;;22.10;42.30;;;;;;2552661;54;20992;-71
2023/06/29 00:21:12;;;;;;;2.20;0.70;;;22.10;42.40;;;;;;2315292;55;20967;-69
2023/06/29 00:23:38;;;;;;;1.55;0.77;;;22.10;42.50;;;;;;2553468;54;20935;-71
2023/06/29 00:26:06;;;;;;;1.83;0.80;;;22.10;42.50;;;;;;2543395;54;20973;-70
2023/06/29 00:28:32;;;;;;;3.30;0.90;;;22.00;42.50;;;;;;2296811;55;20932;-69
2023/06/29 00:30:58;;;;;;;2.30;0.80;;;22.00;42.50;;;;;;2552964;54;20966;-70
2023/06/29 00:33:34;;;;;;;1.83;0.80;;;22.00;42.60;;;;;;2310380;55;20970;-69
2023/06/29 00:36:04;;;;;;;2.05;0.85;;;21.90;42.90;;;;;;2313471;55;20991;-70
2023/06/29 00:38:30;;;;;;;1.67;0.68;;;21.90;42.80;;;;;;2313543;55;21047;-69
2023/06/29 00:40:56;;;;;;;1.92;0.80;;;21.90;42.70;;;;;;2553185;54;20988;-68
2023/06/29 00:43:24;;;;;;;2.37;1.20;;;21.90;42.80;;;;;;2553470;54;21060;-69
2023/06/29 00:45:53;;;;;;;2.50;0.82;;;21.80;42.80;;;;;;2308097;55;21027;-71
2023/06/29 00:48:20;;;;;;;2.15;0.90;;;21.80;42.90;;;;;;2553336;54;21019;-71
2023/06/29 00:50:47;;;;;;;2.42;0.73;;;21.80;42.90;;;;;;2552834;54;21023;-68
2023/06/29 00:53:17;;;;;;;1.98;0.80;;;21.70;42.90;;;;;;2306775;55;21032;-68
2023/06/29 00:55:46;;;;;;;2.58;1.00;;;21.70;42.90;;;;;;2531401;54;21026;-68
2023/06/29 00:58:13;;;;;;;2.22;1.00;;;21.70;43.00;;;;;;2313883;55;21023;-71
2023/06/29 01:00:39;;;;;;;1.90;0.80;;;21.60;43.00;;;;;;2313476;55;21904;-69
2023/06/29 01:03:09;;;;;;;1.75;0.70;;;21.60;43.00;;;;;;2549595;54;21035;-69
2023/06/29 01:05:35;;;;;;;2.70;0.80;;;21.60;43.10;;;;;;2552875;54;20955;-68
2023/06/29 01:08:08;;;;;;;1.70;0.80;;;21.60;43.10;;;;;;2553235;54;21456;-69
2023/06/29 01:10:35;;;;;;;2.20;0.93;;;21.50;43.10;;;;;;2553375;54;21674;-68
2023/06/29 01:13:01;;;;;;;2.40;0.80;;;21.50;43.10;;;;;;2553991;54;20952;-68
2023/06/29 01:15:28;;;;;;;2.03;0.80;;;21.50;43.20;;;;;;2553137;54;21447;-69
2023/06/29 01:17:55;;;;;;;1.80;0.90;;;21.50;43.30;;;;;;2313134;55;20952;-68
2023/06/29 01:20:25;;;;;;;3.03;0.90;;;21.40;43.40;;;;;;2308536;55;20947;-72
2023/06/29 01:22:56;;;;;;;1.75;0.80;;;21.40;43.40;;;;;;2552847;54;21242;-72
2023/06/29 01:25:24;;;;;;;1.95;0.82;;;21.40;43.50;;;;;;2314297;55;21012;-70
2023/06/29 01:27:50;;;;;;;2.45;1.00;;;21.40;43.50;;;;;;2553214;54;20955;-69
2023/06/29 01:30:17;;;;;;;2.33;1.08;;;21.40;43.60;;;;;;2312787;55;20948;-69
2023/06/29 01:32:47;;;;;;;2.50;0.85;;;21.40;43.60;;;;;;2553346;54;20975;-69
2023/06/29 01:35:14;;;;;;;2.35;0.90;;;21.30;43.60;;;;;;2313182;55;21019;-72
2023/06/29 01:38:42;;;;;;;2.35;0.75;;;21.30;43.60;;;;;;2552659;54;21038;-69
2023/06/29 01:41:09;;;;;;;2.87;1.02;;;21.30;43.70;;;;;;2553746;54;21902;-70
2023/06/29 01:43:37;;;;;;;2.47;1.17;;;21.30;43.80;;;;;;2313017;55;21003;-68
2023/06/29 01:46:04;;;;;;;2.35;0.93;;;21.20;44.00;;;;;;2553291;54;20947;-69
2023/06/29 01:48:30;;;;;;;2.40;0.93;;;21.20;44.00;;;;;;2313485;55;20977;-72
2023/06/29 01:50:58;;;;;;;2.30;0.90;;;21.20;44.10;;;;;;2313192;55;21023;-69
2023/06/29 01:53:24;;;;;;;2.00;0.90;;;21.20;44.20;;;;;;2314038;55;20947;-69
2023/06/29 01:55:51;;;;;;;1.90;0.93;;;21.20;44.20;;;;;;2552034;54;20971;-69
2023/06/29 01:58:18;;;;;;;2.33;0.90;;;21.20;44.30;;;;;;2294989;55;20953;-71
2023/06/29 02:00:45;;;;;;;2.80;1.20;;;21.10;44.30;;;;;;2548908;54;21003;-69
2023/06/29 02:03:11;;;;;;;2.72;1.05;;;21.10;44.30;;;;;;2287142;55;20939;-68
2023/06/29 02:05:38;;;;;;;2.35;0.95;;;21.10;44.30;;;;;;2298016;55;20995;-69
2023/06/29 02:08:35;;;;;;;2.08;0.95;;;21.10;44.40;;;;;;2531902;54;21001;-72
2023/06/29 02:11:06;;;;;;;2.53;0.95;;;21.00;44.80;;;;;;2546366;54;21003;-72
2023/06/29 02:13:32;;;;;;;3.17;1.00;;;21.00;44.50;;;;;;2553338;54;20986;-70
2023/06/29 02:16:00;;;;;;;2.17;1.10;;;21.00;44.80;;;;;;2303540;55;21726;-72
2023/06/29 02:18:31;;;;;;;2.58;1.08;;;20.90;44.80;;;;;;2510561;54;20947;-69
2023/06/29 02:20:57;;;;;;;1.80;0.80;;;20.90;44.80;;;;;;2547052;54;20912;-69
2023/06/29 02:23:26;;;;;;;3.67;0.90;;;20.90;44.80;;;;;;2309318;55;20948;-69
2023/06/29 02:25:53;;;;;;;2.12;1.00;;;20.90;44.90;;;;;;2307816;55;21034;-67
2023/06/29 02:28:19;;;;;;;2.00;0.90;;;20.90;44.90;;;;;;2548374;54;20995;-72
2023/06/29 02:30:46;;;;;;;1.83;0.90;;;20.80;44.90;;;;;;2547143;54;20920;-70
2023/06/29 02:33:12;;;;;;;2.60;1.02;;;20.80;44.90;;;;;;2547700;54;20982;-70
2023/06/29 02:35:39;;;;;;;2.05;0.93;;;20.80;45.00;;;;;;2547235;54;20983;-69
2023/06/29 02:38:07;;;;;;;2.50;1.00;;;20.80;45.10;;;;;;2547392;54;21842;-68
2023/06/29 02:40:35;;;;;;;2.65;1.10;;;20.80;45.10;;;;;;2509642;54;20986;-70
2023/06/29 02:43:01;;;;;;;1.92;0.90;;;20.80;45.20;;;;;;2547443;54;21768;-69
2023/06/29 02:45:27;;;;;;;2.40;1.10;;;20.70;45.20;;;;;;2547782;54;20940;-73
2023/06/29 02:47:55;;;;;;;2.40;1.00;;;20.70;45.20;;;;;;2308162;55;21792;-68
2023/06/29 02:50:24;;;;;;;2.33;0.90;;;20.70;45.30;;;;;;2524582;54;21005;-68
2023/06/29 02:52:56;;;;;;;3.22;1.10;;;20.70;45.40;;;;;;2298203;55;21542;-71
2023/06/29 02:55:23;;;;;;;2.35;1.05;;;20.70;45.70;;;;;;2548165;54;20979;-70
2023/06/29 02:57:49;;;;;;;2.50;0.93;;;20.70;46.20;;;;;;2307182;55;21795;-70
2023/06/29 03:00:16;;;;;;;2.90;1.17;;;20.60;45.50;;;;;;2547466;54;21015;-71
2023/06/29 03:02:42;;;;;;;2.17;1.00;;;20.60;45.60;;;;;;2546401;54;20996;-71
2023/06/29 03:05:10;;;;;;;2.55;1.10;;;20.60;45.60;;;;;;2547296;54;21034;-71
2023/06/29 03:07:36;;;;;;;2.80;1.12;;;20.60;45.60;;;;;;2546785;54;20920;-72
2023/06/29 03:10:05;;;;;;;2.33;1.17;;;20.60;45.70;;;;;;2547537;54;21016;-68
2023/06/29 03:12:31;;;;;;;3.10;1.10;;;20.60;45.80;;;;;;2548073;54;20940;-70
2023/06/29 03:14:57;;;;;;;2.60;1.02;;;20.60;45.80;;;;;;2308209;55;20916;-69
2023/06/29 03:17:27;;;;;;;3.05;1.10;;;20.50;45.80;;;;;;2513055;54;20949;-68
2023/06/29 03:19:53;;;;;;;2.62;0.90;;;20.50;45.90;;;;;;2282204;55;20948;-70
2023/06/29 03:22:20;;;;;;;2.30;1.20;;;20.50;45.70;;;;;;2547734;54;20952;-69
2023/06/29 03:24:46;;;;;;;2.30;0.90;;;20.50;45.90;;;;;;2546960;54;21731;-72
2023/06/29 03:27:13;;;;;;;2.55;0.95;;;20.50;45.90;;;;;;2547542;54;20931;-71
2023/06/29 03:29:39;;;;;;;2.35;0.90;;;20.50;45.90;;;;;;2546860;54;20971;-71
2023/06/29 03:32:06;;;;;;;2.40;1.20;;;20.40;45.90;;;;;;2308577;55;21003;-70
2023/06/29 03:34:32;;;;;;;2.30;1.00;;;20.40;45.90;;;;;;2548364;54;20991;-72
2023/06/29 03:36:59;;;;;;;2.20;1.10;;;20.40;45.90;;;;;;2546835;54;20944;-73
2023/06/29 03:39:26;;;;;;;2.45;1.00;;;20.30;46.00;;;;;;2537404;54;21027;-71
2023/06/29 03:42:04;;;;;;;2.25;1.10;;;20.30;46.00;;;;;;2541975;54;21646;-71
2023/06/29 03:44:30;;;;;;;1.95;0.95;;;20.30;46.30;;;;;;2547997;54;20983;-71
2023/06/29 03:46:59;;;;;;;1.70;0.75;;;20.30;46.10;;;;;;2547123;54;20955;-70
2023/06/29 03:49:26;;;;;;;2.40;1.05;;;20.30;46.20;;;;;;2547831;54;20920;-71
2023/06/29 03:51:52;;;;;;;2.10;1.00;;;20.30;46.30;;;;;;2515223;54;21871;-71
2023/06/29 03:54:18;;;;;;;1.67;1.00;;;20.20;46.30;;;;;;2543320;54;20944;-70
2023/06/29 03:56:45;;;;;;;1.85;1.00;;;20.20;46.30;;;;;;2547399;54;21761;-70
2023/06/29 03:59:11;;;;;;;2.40;1.00;;;20.20;46.40;;;;;;2309061;55;20940;-72
2023/06/29 04:01:38;;;;;;;3.00;1.10;;;20.20;46.50;;;;;;2308901;55;20988;-68
2023/06/29 04:04:05;;;;;;;2.45;1.12;;;20.20;46.60;;;;;;2547739;54;20916;-68
2023/06/29 04:06:31;;;;;;;2.83;1.20;;;20.20;46.70;;;;;;2309063;55;20952;-70
2023/06/29 04:08:58;;;;;;;3.75;1.37;;;20.20;46.70;;;;;;2547133;54;20972;-73
2023/06/29 04:11:24;;;;;;;2.92;1.37;;;20.20;47.00;;;;;;2548211;54;21424;-71
2023/06/29 04:13:51;;;;;;;2.50;1.23;;;20.20;47.10;;;;;;2308044;55;20959;-71
2023/06/29 04:16:17;;;;;;;2.80;1.17;;;20.20;47.10;;;;;;2309176;55;20924;-71
2023/06/29 04:18:43;;;;;;;2.25;1.10;;;20.20;47.10;;;;;;2309096;55;21000;-74
2023/06/29 04:21:12;;;;;;;2.20;1.00;;;20.20;47.10;;;;;;2547412;54;20916;-72
2023/06/29 04:23:39;;;;;;;2.80;1.20;;;20.20;47.20;;;;;;2547334;54;21386;-74
2023/06/29 04:26:07;;;;;;;3.05;1.40;;;20.20;47.20;;;;;;2547193;54;20944;-71
2023/06/29 04:28:34;;;;;;;2.92;1.30;;;20.20;47.30;;;;;;2309252;55;21007;-71
2023/06/29 04:31:00;;;;;;;2.15;1.10;;;20.20;47.30;;;;;;2547126;54;20956;-72
2023/06/29 04:33:27;;;;;;;2.50;1.10;;;20.20;47.40;;;;;;2547873;54;21059;-71
2023/06/29 04:35:54;;;;;;;2.40;1.10;;;20.20;47.40;;;;;;2308009;55;21507;-74
2023/06/29 04:38:25;;;;;;;2.10;1.00;;;20.20;47.50;;;;;;2547838;54;20991;-73
2023/06/29 04:41:03;;;;;;;2.55;1.17;;;20.20;47.60;;;;;;2546678;54;21759;-72
2023/06/29 04:43:31;;;;;;;2.80;1.10;;;20.30;47.70;;;;;;2548314;54;21019;-72
2023/06/29 04:45:58;;;;;;;2.40;1.15;;;20.30;47.90;;;;;;2546910;54;21003;-73
2023/06/29 04:48:29;;;;;;;2.10;1.08;;;20.30;47.90;;;;;;2548154;54;21893;-71
2023/06/29 04:51:04;;;;;;;3.15;1.48;;;20.30;48.00;;;;;;2307937;55;21651;-71
2023/06/29 04:53:33;;;;;;;3.30;1.33;;;20.40;48.30;;;;;;2510657;54;21545;-69
2023/06/29 04:56:01;;;;;;;2.55;1.30;;;20.40;48.20;;;;;;2305969;55;20932;-71
2023/06/29 04:58:28;;;;;;;2.97;1.20;;;20.40;48.30;;;;;;2518594;54;21063;-69
2023/06/29 05:00:57;;;;;;;4.35;1.40;;;20.50;48.40;;;;;;2542048;54;20956;-69
2023/06/29 05:03:23;;;;;;;3.00;1.45;;;20.50;48.50;;;;;;2309156;55;21746;-70
2023/06/29 05:05:50;;;;;;;2.80;1.42;;;20.60;48.60;;;;;;2308785;55;21808;-71
2023/06/29 05:08:16;;;;;;;3.45;1.73;;;20.60;49.20;;;;;;2309040;55;21032;-70
2023/06/29 05:10:43;;;;;;;3.22;1.70;;;20.70;48.70;;;;;;2308773;55;20958;-69
2023/06/29 05:13:10;;;;;;;3.50;1.87;;;20.70;48.70;;;;;;2308679;55;21007;-68
2023/06/29 05:15:37;;;;;;;2.75;1.70;;;20.80;48.80;;;;;;2547697;54;21011;-70
2023/06/29 05:18:04;;;;;;;5.07;2.60;;;20.80;48.80;;;;;;2546965;54;20995;-69
2023/06/29 05:20:35;;;;;;;3.70;2.30;;;20.90;48.90;;;;;;2308973;55;21463;-71
2023/06/29 05:23:02;;;;;;;4.00;2.40;;;20.90;49.00;;;;;;2306164;55;21070;-70
2023/06/29 05:25:29;;;;;;;3.65;2.12;;;21.00;49.10;;;;;;2285713;55;20940;-69
2023/06/29 05:27:57;;;;;;;3.30;2.05;;;21.10;49.10;;;;;;2308172;55;20987;-68
2023/06/29 05:30:26;;;;;;;3.28;1.62;;;21.20;49.20;;;;;;2547664;54;21019;-70
2023/06/29 05:32:54;;;;;;;3.90;1.90;;;21.20;49.20;;;;;;2308180;55;20978;-70
2023/06/29 05:35:20;;;;;;;3.37;1.70;;;21.30;49.20;;;;;;2303203;55;20956;-69
2023/06/29 05:37:47;;;;;;;4.15;1.70;;;21.40;49.20;;;;;;2308057;55;20971;-68
2023/06/29 05:40:15;;;;;;;3.10;1.60;;;21.40;49.10;;;;;;2547220;54;20959;-72
2023/06/29 05:42:41;;;;;;;5.40;1.67;;;21.50;49.20;;;;;;2308861;55;20924;-71
2023/06/29 05:45:08;;;;;;;3.08;1.33;;;21.60;49.10;;;;;;2547837;54;20916;-69
2023/06/29 05:47:35;;;;;;;2.60;1.40;;;21.60;49.10;;;;;;2309815;55;20964;-68
2023/06/29 05:50:03;;;;;;;2.45;1.25;;;21.70;49.20;;;;;;2308095;55;21409;-69
2023/06/29 05:52:30;;;;;;;2.70;1.30;;;21.80;49.20;;;;;;2548203;54;21023;-69
2023/06/29 05:54:57;;;;;;;4.15;1.33;;;21.80;49.20;;;;;;2546798;54;20970;-69
2023/06/29 05:57:23;;;;;;;4.97;1.48;;;21.90;49.20;;;;;;2309339;55;21084;-69
2023/06/29 05:59:49;;;;;;;3.47;1.52;;;22.00;49.30;;;;;;2308668;55;20940;-71
2023/06/29 06:02:16;;;;;;;2.90;1.40;;;22.00;49.20;;;;;;2547449;54;20924;-69
2023/06/29 06:04:42;;;;;;;3.92;1.45;;;22.10;49.20;;;;;;2547663;54;21035;-70
2023/06/29 06:07:09;;;;;;;3.30;1.50;;;22.10;49.10;;;;;;2308946;55;20960;-69
2023/06/29 06:09:36;;;;;;;3.17;1.40;;;22.20;49.10;;;;;;2309181;55;21016;-69
2023/06/29 06:12:05;;;;;;;2.60;1.50;;;22.20;49.10;;;;;;2547556;54;21015;-68
2023/06/29 06:14:32;;;;;;;4.70;1.90;;;22.30;49.10;;;;;;2309634;55;21797;-70
2023/06/29 06:16:58;;;;;;;3.17;1.55;;;22.30;49.20;;;;;;2546916;54;21899;-72
2023/06/29 06:19:24;;;;;;;3.85;1.90;;;22.40;49.40;;;;;;2547273;54;20952;-69
2023/06/29 06:21:53;;;;;;;4.07;2.15;;;22.40;49.50;;;;;;2547243;54;21031;-69
2023/06/29 06:24:19;;;;;;;2.72;1.50;;;22.50;49.60;;;;;;2308582;55;20927;-69
2023/06/29 06:26:46;;;;;;;3.90;1.55;;;22.50;49.60;;;;;;2546849;54;20932;-70
2023/06/29 06:29:15;;;;;;;3.08;1.40;;;22.60;49.60;;;;;;2547650;54;21134;-69
2023/06/29 06:31:44;;;;;;;2.72;1.37;;;22.60;49.50;;;;;;2512793;54;21500;-67
2023/06/29 06:34:10;;;;;;;3.85;2.03;;;22.70;49.60;;;;;;2548090;54;20948;-70
2023/06/29 06:36:36;;;;;;;2.75;1.60;;;22.70;49.70;;;;;;2310284;55;20947;-69
2023/06/29 06:39:05;;;;;;;3.55;1.60;;;22.80;49.70;;;;;;2308132;55;21031;-70
2023/06/29 06:41:31;;;;;;;4.22;1.77;;;22.90;49.90;;;;;;2309074;55;20948;-70
2023/06/29 06:44:16;;;;;;;3.87;1.77;;;22.90;49.80;;;;;;2542455;54;20952;-69
2023/06/29 06:46:45;;;;;;;3.62;1.70;;;23.00;50.20;;;;;;2547525;54;20956;-70
2023/06/29 06:49:12;;;;;;;2.85;1.52;;;23.00;49.80;;;;;;2547423;54;20952;-69
2023/06/29 06:51:41;;;;;;;3.37;1.42;;;23.00;49.70;;;;;;2304037;55;21023;-70
2023/06/29 06:54:08;;;;;;;3.35;1.90;;;23.10;49.80;;;;;;2522165;54;20995;-70
2023/06/29 06:56:37;;;;;;;5.05;2.47;;;23.20;49.90;;;;;;2516294;55;20998;-69
2023/06/29 06:59:04;;;;;;;3.22;1.30;;;23.20;49.90;;;;;;2528378;54;21026;-69
2023/06/29 07:01:30;;;;;;;3.20;1.70;;;23.30;50.00;;;;;;2516074;55;21002;-70
2023/06/29 07:03:58;;;;;;;2.78;1.60;;;23.30;49.90;;;;;;2515029;55;20966;-69
2023/06/29 07:06:30;;;;;;;4.47;1.95;;;23.40;49.90;;;;;;2515387;54;21583;-71
2023/06/29 07:08:59;;;;;;;3.10;1.60;;;23.40;49.90;;;;;;2515413;54;20947;-70
2023/06/29 07:11:26;;;;;;;3.83;1.58;;;23.50;49.80;;;;;;2516561;55;20946;-69
2023/06/29 07:13:53;;;;;;;3.12;1.70;;;23.50;49.80;;;;;;2305456;55;20975;-71
2023/06/29 07:16:21;;;;;;;5.00;2.12;;;23.50;49.90;;;;;;2308798;55;20928;-72
2023/06/29 07:19:06;;;;;;;3.92;1.92;;;23.60;49.90;;;;;;2308357;55;21468;-69
2023/06/29 07:21:38;;;;;;;3.92;1.70;;;23.60;50.00;;;;;;2529502;54;21682;-69
2023/06/29 07:24:05;;;;;;;3.08;1.60;;;23.70;49.90;;;;;;2280698;56;21058;-70
2023/06/29 07:26:33;;;;;;;3.65;1.75;;;23.70;49.90;;;;;;2486837;55;20986;-72
2023/06/29 07:28:59;;;;;;;4.15;1.67;;;23.80;49.80;;;;;;2541387;54;21432;-70
2023/06/29 07:31:27;;;;;;;3.37;1.62;;;23.80;49.70;;;;;;2515977;55;20950;-72
2023/06/29 07:33:54;;;;;;;3.70;1.92;;;23.90;49.70;;;;;;2514827;55;20966;-71
2023/06/29 07:36:22;;;;;;;2.75;1.48;;;23.90;49.60;;;;;;2488762;55;20965;-68
2023/06/29 07:38:49;;;;;;;3.45;1.52;;;24.00;49.60;;;;;;2511202;54;20978;-69
2023/06/29 07:41:16;;;;;;;4.37;1.55;;;24.00;49.50;;;;;;2533925;54;20928;-70
2023/06/29 07:43:47;;;;;;;2.62;1.58;;;24.10;49.50;;;;;;2490068;55;20993;-69
2023/06/29 07:46:14;;;;;;;3.92;1.27;;;24.10;49.60;;;;;;2256998;56;21034;-70
2023/06/29 07:48:40;;;;;;;5.05;1.98;;;24.20;49.50;;;;;;2515579;55;20994;-70
2023/06/29 07:51:06;;;;;;;3.67;2.08;;;24.20;49.60;;;;;;2280417;55;21456;-72
2023/06/29 07:53:33;;;;;;;3.03;1.60;;;24.30;49.70;;;;;;2258859;56;20940;-73
2023/06/29 07:56:01;;;;;;;4.30;2.25;;;24.40;49.70;;;;;;2282002;55;20973;-71
2023/06/29 07:58:27;;;;;;;2.53;1.40;;;24.40;49.70;;;;;;2283166;55;20954;-69
2023/06/29 08:00:57;;;;;;;3.60;1.60;;;24.50;49.70;;;;;;2515490;55;21037;-69
2023/06/29 08:03:24;;;;;;;3.05;1.65;;;24.60;49.80;;;;;;2282438;55;20994;-70
2023/06/29 08:05:52;;;;;;;3.55;1.73;;;24.70;49.80;;;;;;2515570;55;21062;-68
2023/06/29 08:08:21;;;;;;;3.92;1.83;;;24.80;49.80;;;;;;2507331;55;20937;-69
2023/06/29 08:10:48;;;;;;;4.30;1.90;;;24.80;49.60;;;;;;2282063;55;20970;-69
2023/06/29 08:13:19;;;;;;;2.65;1.40;;;24.90;49.50;;;;;;2282812;55;21066;-69
2023/06/29 08:15:45;;;;;;;3.60;1.45;;;25.00;49.50;;;;;;2283036;55;21045;-68
2023/06/29 08:18:11;;;;;;;3.70;1.48;;;25.10;49.50;;;;;;2278069;55;20949;-71
2023/06/29 08:20:38;;;;;;;4.05;1.80;;;25.20;49.60;;;;;;2515536;55;20986;-70
2023/06/29 08:23:05;;;;;;;3.85;1.52;;;25.30;49.70;;;;;;2515113;55;21053;-72
2023/06/29 08:25:32;;;;;;;2.90;1.62;;;25.40;49.70;;;;;;2516087;55;21503;-69
2023/06/29 08:27:59;;;;;;;2.90;1.40;;;25.50;49.40;;;;;;2515090;55;21018;-69
2023/06/29 08:30:26;;;;;;;5.65;1.83;;;25.50;49.10;;;;;;2283090;55;20954;-72
2023/06/29 08:32:52;;;;;;;3.50;1.80;;;25.70;49.20;;;;;;2277306;55;21005;-70
2023/06/29 08:35:19;;;;;;;2.53;1.30;;;25.70;49.10;;;;;;2282582;55;22046;-71
2023/06/29 08:37:45;;;;;;;3.13;1.27;;;25.80;49.00;;;;;;2386912;55;1817903;-68
2023/06/29 08:40:14;;;;;;;3.55;1.60;;;25.90;48.90;;;;;;2282425;55;20946;-69
2023/06/29 08:42:42;;;;;;;2.80;1.40;;;26.00;48.70;;;;;;2515790;55;21014;-70
2023/06/29 08:45:09;;;;;;;3.58;1.40;;;26.00;48.40;;;;;;2514973;55;21015;-72
2023/06/29 08:47:35;;;;;;;2.70;1.12;;;26.10;48.20;;;;;;2282281;55;21444;-69
2023/06/29 08:50:04;;;;;;;2.58;1.17;;;26.20;48.10;;;;;;2278960;55;20946;-72
2023/06/29 08:52:33;;;;;;;3.45;1.30;;;26.30;47.90;;;;;;2516237;55;20998;-68
2023/06/29 08:54:59;;;;;;;3.55;1.60;;;26.40;47.80;;;;;;2514923;55;20990;-70
2023/06/29 08:57:28;;;;;;;3.35;1.30;;;26.50;47.70;;;;;;2283229;55;20938;-70
2023/06/29 08:59:54;;;;;;;3.10;1.40;;;26.60;47.50;;;;;;2281836;55;21086;-69
2023/06/29 09:02:20;;;;;;;2.92;1.40;;;26.60;47.20;;;;;;2495614;55;20929;-69
2023/06/29 09:04:49;;;;;;;4.07;1.23;;;26.70;47.20;;;;;;2268421;56;21448;-70
2023/06/29 09:07:15;;;;;;;2.40;0.93;;;26.70;47.00;;;;;;2282314;55;20958;-71
2023/06/29 09:09:43;;;;;;;2.50;1.23;;;26.80;46.90;;;;;;2520689;54;20943;-68
2023/06/29 09:12:12;;;;;;;3.67;1.42;;;26.90;46.80;;;;;;2307453;55;20964;-69
2023/06/29 09:14:43;;;;;;;3.20;1.35;;;27.00;46.80;;;;;;2478427;55;21045;-69
2023/06/29 09:17:17;;;;;;;3.30;1.37;;;27.00;46.60;;;;;;2273709;56;25385;-70
2023/06/29 09:19:56;;;;;;;3.45;1.40;;;27.10;46.20;;;;;;2282500;56;21736;-68
2023/06/29 09:22:26;;;;;;;3.62;1.42;;;27.20;46.40;;;;;;2299444;55;20943;-69
2023/06/29 09:24:58;;;;;;;2.55;1.02;;;27.20;46.30;;;;;;2302580;55;21797;-71
2023/06/29 09:27:33;;;;;;;2.50;1.20;;;27.30;46.30;;;;;;2308509;55;20967;-68
2023/06/29 09:30:00;;;;;;;2.40;1.17;;;27.30;45.90;;;;;;2546546;54;21722;-70
2023/06/29 09:32:30;;;;;;;3.08;1.30;;;27.40;45.80;;;;;;2546912;54;20994;-72
2023/06/29 09:35:04;;;;;;;3.55;1.48;;;27.50;45.80;;;;;;2291334;55;20923;-69
2023/06/29 09:37:31;;;;;;;3.15;1.30;;;27.60;45.80;;;;;;2283304;56;21002;-69
2023/06/29 09:40:00;;;;;;;3.80;1.40;;;27.60;45.70;;;;;;2501486;55;20945;-73
2023/06/29 09:42:28;;;;;;;3.28;1.30;;;27.70;45.50;;;;;;2270373;56;21057;-68
2023/06/29 09:45:02;;;;;;;2.65;1.08;;;27.80;45.50;;;;;;2522235;54;21632;-71
2023/06/29 09:47:29;;;;;;;3.20;1.20;;;27.80;45.20;;;;;;2546582;54;20963;-71
2023/06/29 09:49:58;;;;;;;2.72;1.30;;;27.90;45.30;;;;;;2281530;56;20966;-69
2023/06/29 09:52:25;;;;;;;3.67;1.50;;;28.00;45.40;;;;;;2281863;55;21006;-70
2023/06/29 09:54:57;;;;;;;2.83;1.25;;;28.10;45.50;;;;;;2256116;55;21060;-69
2023/06/29 09:57:23;;;;;;;3.87;1.42;;;28.10;45.10;;;;;;2305594;55;21547;-69
2023/06/29 09:59:50;;;;;;;3.12;1.20;;;28.20;45.20;;;;;;2547905;54;21413;-72
2023/06/29 10:02:18;;;;;;;2.37;1.10;;;28.30;45.30;;;;;;2547314;54;20944;-70
2023/06/29 10:04:45;;;;;;;2.28;1.00;;;28.40;45.30;;;;;;2541700;54;21357;-70
2023/06/29 10:07:18;;;;;;;3.15;1.17;;;28.40;45.10;;;;;;2251718;55;20983;-69
2023/06/29 10:09:47;;;;;;;2.28;1.10;;;28.50;45.10;;;;;;2518984;54;20944;-71
2023/06/29 10:12:14;;;;;;;2.60;1.10;;;28.60;45.10;;;;;;2282830;56;21094;-72
2023/06/29 10:14:45;;;;;;;2.12;1.20;;;28.70;45.10;;;;;;2282237;56;20974;-69
2023/06/29 10:17:24;;;;;;;2.67;1.20;;;28.80;44.80;;;;;;2282356;56;21042;-72
2023/06/29 10:19:50;;;;;;;2.65;1.30;;;28.90;44.10;;;;;;2530627;54;20940;-70
2023/06/29 10:22:19;;;;;;;2.40;1.17;;;29.00;44.30;;;;;;2288573;55;20970;-70
2023/06/29 10:24:55;;;;;;;2.20;1.10;;;29.00;44.00;;;;;;2533863;54;21457;-71
2023/06/29 10:27:27;;;;;;;2.00;0.98;;;29.10;43.90;;;;;;2514589;55;21030;-69
2023/06/29 10:29:54;;;;;;;2.87;1.10;;;29.20;43.80;;;;;;2496296;55;20992;-69
2023/06/29 10:32:33;;;;;;;2.15;1.00;;;29.20;44.10;;;;;;2276247;54;20955;-72
2023/06/29 10:35:07;;;;;;;2.70;1.20;;;29.30;43.10;;;;;;2516397;54;21069;-70
2023/06/29 10:37:35;;;;;;;3.22;1.17;;;29.40;43.40;;;;;;2518184;54;21756;-69
2023/06/29 10:40:05;;;;;;;3.42;1.17;;;29.40;43.00;;;;;;2545255;54;20948;-69
2023/06/29 10:43:05;;;;;;;3.28;1.27;;;29.50;42.90;;;;;;2282541;56;21799;-70
2023/06/29 10:45:32;;;;;;;3.33;1.30;;;29.60;42.40;;;;;;2282915;56;20935;-70
2023/06/29 10:48:02;;;;;;;2.28;1.00;;;29.60;42.60;;;;;;2514990;54;20974;-70
2023/06/29 10:50:42;;;;;;;1.85;1.00;;;29.70;42.30;;;;;;2282728;55;21073;-71
2023/06/29 10:53:10;;;;;;;3.22;1.02;;;29.70;42.10;;;;;;2530408;54;21035;-70
2023/06/29 10:56:01;;;;;;;2.47;1.12;;;29.80;42.40;;;;;;2531666;54;20935;-72
2023/06/29 10:58:35;;;;;;;2.00;0.80;;;29.80;42.30;;;;;;2514480;54;20983;-68
2023/06/29 11:01:01;;;;;;;2.58;1.02;;;29.90;42.30;;;;;;2511096;55;20984;-68
2023/06/29 11:03:29;;;;;;;2.33;1.02;;;29.90;42.20;;;;;;2513837;55;21982;-68
2023/06/29 11:05:56;;;;;;;2.85;1.25;;;29.90;41.90;;;;;;2279741;55;21515;-68
2023/06/29 11:08:25;;;;;;;3.03;1.37;;;29.90;41.90;;;;;;2540230;54;21982;-69
2023/06/29 11:10:51;;;;;;;2.65;1.10;;;30.00;41.50;;;;;;2297525;55;20962;-68
2023/06/29 11:13:21;;;;;;;5.32;1.20;;;30.00;41.20;;;;;;2280494;55;20946;-69
2023/06/29 11:15:54;;;;;;;3.28;1.25;;;30.00;41.00;;;;;;2293991;55;20982;-69
2023/06/29 11:18:22;;;;;;;2.58;1.15;;;30.10;40.90;;;;;;2281500;55;20955;-67
2023/06/29 11:20:50;;;;;;;2.45;1.12;;;30.10;40.90;;;;;;2287613;55;20995;-68
2023/06/29 11:23:17;;;;;;;2.28;1.00;;;30.20;40.90;;;;;;2508531;55;21054;-67
2023/06/29 11:25:44;;;;;;;4.45;1.60;;;30.20;40.80;;;;;;2285985;55;21037;-69
2023/06/29 11:28:14;;;;;;;2.47;1.15;;;30.20;40.60;;;;;;2276628;56;21077;-69
2023/06/29 11:30:41;;;;;;;2.85;1.10;;;30.20;40.40;;;;;;2254960;55;21500;-70
2023/06/29 11:33:10;;;;;;;3.62;1.27;;;30.30;40.60;;;;;;2505583;54;21784;-68
2023/06/29 11:35:43;;;;;;;2.90;1.20;;;30.30;40.50;;;;;;2541060;54;21602;-67
2023/06/29 11:38:09;;;;;;;3.35;1.20;;;30.30;40.60;;;;;;2540187;54;20944;-68
2023/06/29 11:40:37;;;;;;;2.85;1.25;;;30.30;40.60;;;;;;2512405;54;21443;-67
2023/06/29 11:43:06;;;;;;;3.28;1.30;;;30.30;40.70;;;;;;2506543;55;21029;-70
2023/06/29 11:45:33;;;;;;;3.12;1.42;;;30.40;40.70;;;;;;2282778;55;20975;-68
2023/06/29 11:48:00;;;;;;;3.58;1.20;;;30.40;40.70;;;;;;2523188;54;20974;-69
2023/06/29 11:50:30;;;;;;;3.08;1.10;;;30.40;40.70;;;;;;2517555;54;20952;-69
2023/06/29 11:52:57;;;;;;;3.10;1.40;;;30.40;40.60;;;;;;2516790;54;20990;-69
2023/06/29 11:55:25;;;;;;;3.58;1.20;;;30.40;40.80;;;;;;2293487;55;20991;-68
2023/06/29 11:57:54;;;;;;;2.25;0.90;;;30.40;40.90;;;;;;2530504;54;20919;-70
2023/06/29 12:00:29;;;;;;;2.75;1.10;;;30.50;40.80;;;;;;2477226;55;20953;-68
2023/06/29 12:03:04;;;;;;;2.40;1.20;;;30.50;40.70;;;;;;2475132;55;21062;-70
2023/06/29 12:05:31;;;;;;;3.40;1.30;;;30.60;40.70;;;;;;2293716;55;20968;-68
2023/06/29 12:08:04;;;;;;;2.60;1.10;;;30.60;40.70;;;;;;2535298;54;20950;-68
2023/06/29 12:10:34;;;;;;;2.35;1.10;;;30.70;40.70;;;;;;2277471;55;21030;-68
2023/06/29 12:13:01;;;;;;;2.15;1.00;;;30.70;40.40;;;;;;2507347;55;20983;-69
2023/06/29 12:15:32;;;;;;;2.62;1.27;;;30.80;40.40;;;;;;2275983;55;20971;-68
2023/06/29 12:18:15;;;;;;;2.92;1.30;;;30.80;40.10;;;;;;2510064;55;20955;-69
2023/06/29 12:20:42;;;;;;;;;;;30.90;40.00;;;;;;2531634;54;20925;-69
2023/06/29 12:23:09;;;;;;;4.45;1.40;;;31.00;40.00;;;;;;2278621;55;20385;-69
2023/06/29 12:25:48;;;;;;;3.62;1.45;;;31.00;40.00;;;;;;2301890;55;21483;-66
2023/06/29 12:28:23;;;;;;;3.97;1.50;;;31.00;39.80;;;;;;2538351;54;21019;-68
2023/06/29 12:30:49;;;;;;;2.92;1.40;;;31.00;39.80;;;;;;2520546;54;21654;-68
2023/06/29 12:33:16;;;;;;;3.30;1.37;;;31.00;39.70;;;;;;2486525;55;21029;-70
2023/06/29 12:35:45;;;;;;;3.87;1.80;;;31.10;39.60;;;;;;2274574;55;22186;-67
2023/06/29 12:38:14;;;;;;;4.25;1.60;;;31.10;39.40;;;;;;2274475;55;21051;-70
2023/06/29 12:40:41;;;;;;;3.10;1.50;;;31.10;39.40;;;;;;2491908;55;20958;-69
2023/06/29 12:43:10;;;;;;;2.55;1.30;;;31.20;39.40;;;;;;2507179;55;20936;-69
2023/06/29 12:45:36;;;;;;;3.58;1.67;;;31.20;39.30;;;;;;2506531;55;21018;-67
2023/06/29 12:48:03;;;;;;;3.55;1.45;;;31.30;39.10;;;;;;2523344;54;21666;-67
2023/06/29 12:50:30;;;;;;;3.42;1.50;;;31.30;39.20;;;;;;2487001;54;21047;-69
2023/06/29 12:52:56;;;;;;;3.87;1.58;;;31.30;39.00;;;;;;2531411;54;21060;-69
2023/06/29 12:55:23;;;;;;;4.12;1.65;;;31.40;39.10;;;;;;2278049;55;20955;-69